Time;durP1;ratioP1;P1;durP2;ratioP2;P2;SDS_P1;SDS_P2;PMS_P1;PMS_P2;Temp;Humidity;BMP_temperature;BMP_pressure;BME280_temperature;BME280_humidity;BME280_pressure;Samples;Min_cycle;Max_cycle;Signal;HPM_P1;HPM_P2
2021/12/12 00:00:59;;;;;;;5.00;3.73;;;;;;;11.90;82.79;93197.59;5090152;28;20178;-75
2021/12/12 00:03:39;;;;;;;6.73;4.97;;;;;;;11.90;82.86;93201.94;5090131;28;20579;-75
2021/12/12 00:06:09;;;;;;;5.27;4.00;;;;;;;11.89;82.94;93200.38;5090057;28;20258;-74
2021/12/12 00:08:44;;;;;;;6.00;4.17;;;;;;;11.87;82.71;93205.66;5090102;28;20606;-74
2021/12/12 00:11:17;;;;;;;5.83;4.27;;;;;;;11.86;82.57;93206.63;5089807;28;20720;-74
2021/12/12 00:13:46;;;;;;;7.77;3.77;;;;;;;11.86;82.71;93221.22;5089456;28;20190;-74
2021/12/12 00:16:13;;;;;;;5.27;4.17;;;;;;;11.84;82.43;93247.00;5089885;28;20225;-73
2021/12/12 00:18:40;;;;;;;8.73;4.57;;;;;;;11.84;82.38;93225.72;5089304;28;20200;-75
2021/12/12 00:21:12;;;;;;;6.00;4.80;;;;;;;11.81;82.56;93240.44;5090085;28;20186;-75
2021/12/12 00:23:39;;;;;;;6.03;4.73;;;;;;;11.80;82.66;93233.75;5089540;28;20192;-75
2021/12/12 00:26:07;;;;;;;8.90;5.10;;;;;;;11.76;82.80;93232.50;5089469;28;20603;-75
2021/12/12 00:28:35;;;;;;;6.37;5.10;;;;;;;11.77;82.81;93248.66;5090943;28;20660;-75
2021/12/12 00:31:09;;;;;;;7.50;5.47;;;;;;;11.76;82.77;93262.44;5093668;28;20209;-74
2021/12/12 00:33:37;;;;;;;7.73;6.00;;;;;;;11.73;82.76;93261.03;5093782;28;20683;-75
2021/12/12 00:36:04;;;;;;;7.43;6.07;;;;;;;11.75;82.94;93279.59;5093623;28;20217;-74
2021/12/12 00:38:35;;;;;;;8.23;5.57;;;;;;;11.74;82.79;93269.50;5093566;28;20189;-74
2021/12/12 00:41:05;;;;;;;8.63;5.37;;;;;;;11.72;82.83;93272.25;5093336;28;20190;-74
2021/12/12 00:43:36;;;;;;;8.53;6.10;;;;;;;11.73;82.91;93285.84;5093175;28;20221;-76
2021/12/12 00:46:09;;;;;;;6.57;5.80;;;;;;;11.59;82.87;93258.50;5093484;28;20202;-74
2021/12/12 00:48:37;;;;;;;6.87;5.83;;;;;;;11.72;82.60;93285.06;5093791;28;20206;-76
2021/12/12 00:51:08;;;;;;;8.07;4.97;;;;;;;11.64;82.42;93285.16;5093022;28;20301;-75
2021/12/12 00:53:38;;;;;;;4.73;4.10;;;;;;;11.71;82.17;93292.94;5093458;28;20188;-76
2021/12/12 00:56:06;;;;;;;5.27;3.87;;;;;;;11.70;81.89;93297.25;5093014;28;20194;-75
2021/12/12 00:58:33;;;;;;;4.00;3.33;;;;;;;11.49;81.76;93269.81;5093114;28;20182;-75
2021/12/12 01:01:06;;;;;;;3.77;3.37;;;;;;;11.69;81.48;93307.66;5092920;28;20680;-76
2021/12/12 01:03:36;;;;;;;2.97;2.70;;;;;;;11.67;81.45;93319.88;5111842;28;20208;-75
2021/12/12 01:06:06;;;;;;;2.80;2.60;;;;;;;11.68;81.44;93314.56;5113511;28;20185;-75
2021/12/12 01:08:34;;;;;;;2.43;2.23;;;;;;;11.55;80.94;93297.25;5113576;28;20177;-75
2021/12/12 01:11:08;;;;;;;2.60;2.27;;;;;;;11.67;80.78;93304.50;5113226;28;20193;-75
2021/12/12 01:13:36;;;;;;;2.97;2.00;;;;;;;11.64;80.60;93297.97;5113744;28;20193;-75
2021/12/12 01:16:06;;;;;;;2.20;2.10;;;;;;;11.62;80.55;93299.13;5113242;28;20618;-75
2021/12/12 01:18:37;;;;;;;1.90;1.80;;;;;;;11.58;80.41;93308.13;5113351;28;20200;-75
2021/12/12 01:21:11;;;;;;;2.10;1.90;;;;;;;11.62;80.54;93315.28;5113021;28;20668;-77
2021/12/12 01:23:41;;;;;;;2.13;1.93;;;;;;;11.60;80.26;93319.78;5113409;28;20181;-74
2021/12/12 01:26:10;;;;;;;1.90;1.80;;;;;;;11.60;80.71;93321.53;5112817;28;20197;-74
2021/12/12 01:28:42;;;;;;;2.33;1.90;;;;;;;11.60;80.38;93322.31;5113433;28;20185;-75
2021/12/12 01:31:11;;;;;;;1.87;1.70;;;;;;;11.59;80.33;93327.63;5112682;28;20199;-73
2021/12/12 01:33:38;;;;;;;1.97;1.73;;;;;;;11.54;80.10;93311.03;5113348;28;20181;-75
2021/12/12 01:36:08;;;;;;;1.70;1.60;;;;;;;11.41;80.01;93290.41;5112860;28;20181;-73
2021/12/12 01:38:55;;;;;;;1.70;1.60;;;;;;;11.54;80.14;93303.34;5112908;28;20181;-75
2021/12/12 01:41:30;;;;;;;2.13;1.97;;;;;;;11.52;79.81;93314.75;5111957;28;20236;-75
2021/12/12 01:44:02;;;;;;;1.93;1.77;;;;;;;11.48;79.93;93318.63;5112499;28;20666;-75
2021/12/12 01:46:34;;;;;;;2.60;1.67;;;;;;;11.44;79.70;93323.31;5113011;28;20220;-74
2021/12/12 01:49:05;;;;;;;2.20;2.00;;;;;;;11.42;79.62;93327.00;5112589;28;20181;-74
2021/12/12 01:51:35;;;;;;;1.80;1.70;;;;;;;11.34;79.57;93337.34;5112909;28;20177;-74
2021/12/12 01:54:06;;;;;;;1.80;1.70;;;;;;;11.28;79.48;93341.41;5112407;28;20188;-74
2021/12/12 01:56:39;;;;;;;1.90;1.80;;;;;;;11.27;79.27;93348.28;5112353;28;20216;-74
2021/12/12 01:59:08;;;;;;;1.90;1.80;;;;;;;11.10;79.29;93339.19;5112119;28;20261;-74
2021/12/12 02:01:40;;;;;;;2.27;1.60;;;;;;;10.99;79.11;93340.38;5112643;28;20177;-75
2021/12/12 02:04:13;;;;;;;1.80;1.60;;;;;;;11.14;79.41;93367.75;5112340;28;20185;-74
2021/12/12 02:06:44;;;;;;;1.70;1.60;;;;;;;11.12;79.19;93373.03;5112241;28;20714;-73
2021/12/12 02:09:12;;;;;;;2.00;1.90;;;;;;;11.08;79.13;93369.25;5111863;28;20188;-74
2021/12/12 02:11:43;;;;;;;1.80;1.70;;;;;;;11.04;79.12;93370.53;5112017;28;20189;-74
2021/12/12 02:14:12;;;;;;;1.70;1.60;;;;;;;11.02;78.82;93362.25;5112126;28;20227;-73
2021/12/12 02:16:43;;;;;;;2.13;1.93;;;;;;;10.91;79.15;93360.09;5112358;28;20242;-73
2021/12/12 02:19:13;;;;;;;2.53;2.10;;;;;;;10.97;79.30;93344.09;5111875;28;20189;-74
2021/12/12 02:21:56;;;;;;;1.90;1.80;;;;;;;10.93;79.00;93340.28;5112473;28;20260;-74
2021/12/12 02:35:46;;;;;;;2.10;1.90;;;;;;;10.94;78.94;93367.44;5111955;28;20203;-75
2021/12/12 02:38:16;;;;;;;2.50;2.00;;;;;;;10.95;78.88;93377.50;5111340;28;20231;-75
2021/12/12 02:40:47;;;;;;;2.77;2.00;;;;;;;10.96;78.80;93376.53;5111654;28;20193;-74
2021/12/12 02:43:18;;;;;;;2.00;1.80;;;;;;;10.97;78.60;93383.25;5111233;28;20221;-74
2021/12/12 02:45:46;;;;;;;4.67;1.70;;;;;;;10.89;78.52;93374.84;5111883;28;20189;-74
2021/12/12 02:48:17;;;;;;;4.30;2.07;;;;;;;10.97;78.42;93390.91;5111531;28;20188;-74
2021/12/12 02:50:48;;;;;;;3.43;2.10;;;;;;;11.00;78.30;93394.88;5111342;28;20642;-73
2021/12/12 02:53:18;;;;;;;1.93;1.53;;;;;;;10.53;78.41;93335.31;5111171;28;20567;-74
2021/12/12 02:55:50;;;;;;;3.17;2.00;;;;;;;11.01;78.33;93404.97;5111152;28;20201;-73
2021/12/12 02:58:20;;;;;;;1.80;1.70;;;;;;;11.00;78.30;93402.56;5110914;28;20603;-76
2021/12/12 03:00:51;;;;;;;2.40;2.20;;;;;;;10.99;78.14;93401.75;5111252;28;20246;-73
2021/12/12 03:03:19;;;;;;;4.07;1.83;;;;;;;10.97;78.11;93405.47;5110888;28;20655;-75
2021/12/12 03:05:48;;;;;;;3.40;2.03;;;;;;;10.97;78.01;93408.03;5111319;28;20193;-73
2021/12/12 03:08:15;;;;;;;2.33;2.10;;;;;;;10.92;78.14;93403.41;5110741;28;20193;-75
2021/12/12 03:10:45;;;;;;;2.10;1.90;;;;;;;10.86;77.93;93396.44;5111122;28;20185;-75
2021/12/12 03:13:14;;;;;;;2.33;1.80;;;;;;;10.93;78.10;93422.91;5092421;28;20193;-74
2021/12/12 03:15:43;;;;;;;2.83;2.07;;;;;;;10.90;78.19;93414.78;5111224;28;20193;-74
2021/12/12 03:18:14;;;;;;;2.13;2.00;;;;;;;10.91;77.95;93416.38;5110266;28;20232;-74
2021/12/12 03:20:46;;;;;;;1.77;1.60;;;;;;;10.89;78.07;93415.75;5110858;28;20688;-77
2021/12/12 03:23:19;;;;;;;2.97;1.60;;;;;;;10.88;77.86;93420.09;5110439;28;20177;-73
2021/12/12 03:25:49;;;;;;;2.47;1.80;;;;;;;10.87;78.06;93412.56;5111251;28;20209;-74
2021/12/12 03:28:21;;;;;;;1.60;1.50;;;;;;;10.83;77.92;93416.44;5110114;28;20188;-73
2021/12/12 03:30:52;;;;;;;2.60;1.80;;;;;;;10.86;78.07;93423.78;5110873;28;20570;-73
2021/12/12 03:33:19;;;;;;;1.60;1.50;;;;;;;10.38;77.68;93362.56;5110282;28;20177;-73
2021/12/12 03:35:48;;;;;;;1.77;1.67;;;;;;;10.84;78.02;93438.47;5110777;28;20181;-73
2021/12/12 03:38:15;;;;;;;1.60;1.50;;;;;;;10.83;77.86;93455.56;5110611;28;20219;-74
2021/12/12 03:40:44;;;;;;;1.57;1.47;;;;;;;10.83;77.84;93460.69;5110890;28;20193;-75
2021/12/12 03:43:12;;;;;;;1.77;1.63;;;;;;;10.55;77.79;93434.81;5110036;28;20228;-74
2021/12/12 03:45:42;;;;;;;1.73;1.63;;;;;;;10.84;77.77;93481.94;5110781;28;20189;-74
2021/12/12 03:48:12;;;;;;;4.00;1.97;;;;;;;10.84;77.71;93490.44;5110551;28;20185;-74
2021/12/12 03:50:43;;;;;;;1.73;1.63;;;;;;;10.85;77.73;93496.34;5110500;28;20185;-75
2021/12/12 03:53:11;;;;;;;1.70;1.60;;;;;;;10.74;77.78;93489.84;5110030;28;20192;-75
2021/12/12 03:55:38;;;;;;;2.03;1.83;;;;;;;10.79;77.65;93498.63;5110257;28;20668;-75
2021/12/12 03:58:08;;;;;;;2.00;1.70;;;;;;;10.83;77.52;93503.38;5110093;28;20220;-75
2021/12/12 04:00:39;;;;;;;2.20;2.00;;;;;;;10.82;77.58;93497.47;5110325;28;20189;-75
2021/12/12 04:03:10;;;;;;;4.00;2.00;;;;;;;10.80;77.41;93501.97;5109388;27;20192;-75
2021/12/12 04:05:37;;;;;;;2.60;2.20;;;;;;;10.57;77.10;93485.78;5110285;28;20185;-75
2021/12/12 04:08:05;;;;;;;2.07;1.97;;;;;;;10.77;77.15;93520.97;5109944;28;20586;-74
2021/12/12 04:10:32;;;;;;;2.10;2.00;;;;;;;10.76;77.04;93518.59;5110257;28;20676;-75
2021/12/12 04:12:59;;;;;;;2.47;2.27;;;;;;;10.73;77.14;93529.94;5110058;28;20188;-75
2021/12/12 04:15:26;;;;;;;2.50;2.30;;;;;;;10.57;76.98;93509.56;5110205;28;20585;-75
2021/12/12 04:17:53;;;;;;;2.50;2.30;;;;;;;10.71;76.86;93549.78;5110299;28;20212;-75
2021/12/12 04:20:25;;;;;;;2.20;2.10;;;;;;;10.67;76.79;93553.66;5110313;28;20189;-75
2021/12/12 04:22:52;;;;;;;3.07;2.47;;;;;;;10.67;76.96;93565.63;5110030;28;20192;-75
2021/12/12 04:25:19;;;;;;;3.90;2.30;;;;;;;10.55;76.78;93562.63;5109738;28;20204;-73
2021/12/12 04:27:46;;;;;;;2.13;1.93;;;;;;;10.64;76.62;93599.19;5110028;28;20219;-74
2021/12/12 04:30:15;;;;;;;2.40;2.20;;;;;;;10.62;76.62;93593.44;5109718;28;20185;-73
2021/12/12 04:32:43;;;;;;;2.50;2.30;;;;;;;10.56;76.27;93584.66;5110431;28;20185;-74
2021/12/12 04:35:14;;;;;;;2.63;2.07;;;;;;;10.55;75.82;93593.31;5109532;28;20258;-74
2021/12/12 04:37:44;;;;;;;2.77;2.30;;;;;;;10.51;75.64;93604.81;5109831;28;20224;-73
2021/12/12 04:40:15;;;;;;;2.63;2.43;;;;;;;10.47;75.73;93601.78;5109961;28;20188;-74
2021/12/12 04:42:44;;;;;;;2.57;2.37;;;;;;;10.46;75.57;93623.19;5109940;28;20193;-73
2021/12/12 04:45:21;;;;;;;2.53;2.33;;;;;;;10.44;75.24;93604.66;5109417;28;20216;-74
2021/12/12 04:50:48;;;;;;;2.60;2.40;;;;;;;10.35;75.15;93632.97;5109998;28;20222;-74
2021/12/12 04:53:24;;;;;;;2.90;2.70;;;;;;;10.31;74.98;93629.94;5109621;28;20211;-74
2021/12/12 04:55:56;;;;;;;2.33;2.13;;;;;;;10.26;74.77;93632.97;5109844;28;20216;-74
2021/12/12 04:58:31;;;;;;;2.47;2.27;;;;;;;10.20;74.43;93636.16;5109392;28;20225;-74
2021/12/12 05:01:01;;;;;;;2.63;2.43;;;;;;;10.19;74.35;93638.84;5110260;28;20176;-74
2021/12/12 05:03:35;;;;;;;2.40;2.20;;;;;;;10.10;74.13;93639.81;5109744;28;20189;-74
2021/12/12 05:06:08;;;;;;;2.33;2.03;;;;;;;10.09;74.03;93653.56;5109983;28;20254;-74
2021/12/12 05:08:40;;;;;;;2.53;2.33;;;;;;;10.06;73.77;93647.03;5109644;28;20212;-74
2021/12/12 05:11:12;;;;;;;2.50;2.30;;;;;;;9.89;73.75;93637.78;5110206;28;20181;-75
2021/12/12 05:13:43;;;;;;;2.47;2.10;;;;;;;9.97;73.63;93648.78;5109914;28;20571;-74
2021/12/12 05:16:16;;;;;;;2.20;2.10;;;;;;;9.97;73.44;93671.75;5111719;28;20189;-73
2021/12/12 05:18:50;;;;;;;3.40;3.10;;;;;;;9.94;73.47;93682.28;5112800;28;20602;-77
2021/12/12 05:21:23;;;;;;;2.83;2.53;;;;;;;9.74;73.33;93663.13;5113029;28;20565;-75
2021/12/12 05:23:56;;;;;;;2.60;2.40;;;;;;;9.89;73.37;93704.97;5113417;28;20556;-74
2021/12/12 05:26:28;;;;;;;2.93;2.60;;;;;;;9.86;73.29;93707.81;5113457;28;20538;-75
2021/12/12 05:29:01;;;;;;;2.63;2.37;;;;;;;9.81;73.31;93702.38;5112613;28;20594;-75
2021/12/12 05:31:30;;;;;;;2.60;2.40;;;;;;;9.80;73.04;93708.41;5094430;28;20193;-75
2021/12/12 05:33:58;;;;;;;2.27;2.07;;;;;;;9.77;73.10;93704.44;5112742;28;20806;-75
2021/12/12 05:36:27;;;;;;;1.70;1.60;;;;;;;9.74;73.08;93701.41;5113252;28;20189;-75
2021/12/12 05:38:57;;;;;;;2.47;2.27;;;;;;;9.71;73.07;93717.81;5112793;28;20228;-74
2021/12/12 05:41:25;;;;;;;2.10;1.90;;;;;;;9.67;72.94;93720.84;5112919;28;20694;-77
2021/12/12 05:43:56;;;;;;;2.07;1.90;;;;;;;9.62;72.70;93725.63;5112174;28;20224;-74
2021/12/12 05:46:25;;;;;;;2.00;1.90;;;;;;;9.49;72.83;93705.66;5112868;28;20197;-74
2021/12/12 05:48:53;;;;;;;3.37;2.30;;;;;;;9.04;72.65;93664.22;5112765;28;20185;-75
2021/12/12 05:51:21;;;;;;;2.60;2.10;;;;;;;9.52;72.50;93756.38;5112812;28;20207;-76
2021/12/12 05:53:50;;;;;;;2.53;2.20;;;;;;;9.45;72.45;93763.84;5112408;28;20679;-74
2021/12/12 05:56:22;;;;;;;6.27;4.13;;;;;;;9.07;72.53;93715.84;5112840;28;20229;-74
2021/12/12 05:58:50;;;;;;;6.43;4.03;;;;;;;9.50;72.58;93784.63;5112156;28;20216;-76
2021/12/12 06:01:18;;;;;;;5.60;3.60;;;;;;;9.43;72.59;93778.53;5112364;28;20204;-76
2021/12/12 06:03:46;;;;;;;4.43;3.13;;;;;;;9.46;72.47;93790.19;5112574;28;20184;-76
2021/12/12 06:06:17;;;;;;;6.83;3.53;;;;;;;9.46;72.45;93806.28;5112335;28;20193;-74
2021/12/12 06:08:46;;;;;;;4.63;3.37;;;;;;;9.38;72.38;93790.94;5112238;28;20185;-75
2021/12/12 06:11:15;;;;;;;4.87;3.03;;;;;;;9.42;72.16;93797.34;5111942;28;20189;-75
2021/12/12 06:13:44;;;;;;;5.00;3.07;;;;;;;9.40;72.13;93793.34;5111779;28;20193;-74
2021/12/12 06:16:18;;;;;;;3.93;2.90;;;;;;;9.37;71.86;93803.84;5112010;28;20214;-76
2021/12/12 06:18:46;;;;;;;3.63;2.77;;;;;;;9.34;71.91;93802.41;5111749;28;20316;-77
2021/12/12 06:21:14;;;;;;;3.63;2.83;;;;;;;9.32;71.95;93806.84;5112221;28;20185;-76
2021/12/12 06:23:41;;;;;;;4.37;3.07;;;;;;;9.30;71.83;93818.97;5111643;28;20185;-76
2021/12/12 06:26:08;;;;;;;3.23;2.73;;;;;;;9.26;71.76;93808.25;5111822;28;20185;-75
2021/12/12 06:28:39;;;;;;;3.27;2.97;;;;;;;9.12;71.68;93793.53;5111349;28;20668;-76
2021/12/12 06:31:09;;;;;;;4.17;2.60;;;;;;;9.32;71.64;93832.34;5111732;28;20296;-75
2021/12/12 06:33:37;;;;;;;2.67;2.43;;;;;;;9.22;71.65;93809.50;5111808;28;20188;-74
2021/12/12 06:36:05;;;;;;;3.17;2.13;;;;;;;9.32;71.44;93839.22;5111783;28;20193;-74
2021/12/12 06:38:34;;;;;;;3.17;2.37;;;;;;;9.28;71.41;93851.47;5111193;28;20217;-75
2021/12/12 06:41:01;;;;;;;3.63;2.53;;;;;;;9.13;71.35;93837.69;5112198;28;20185;-74
2021/12/12 06:43:28;;;;;;;2.17;1.97;;;;;;;9.25;71.14;93864.53;5111525;28;20221;-75
2021/12/12 06:45:55;;;;;;;2.33;2.13;;;;;;;9.22;71.16;93865.63;5111522;28;20196;-74
2021/12/12 06:48:24;;;;;;;2.37;2.17;;;;;;;9.18;71.21;93866.88;5111494;28;20424;-74
2021/12/12 06:50:54;;;;;;;2.50;2.00;;;;;;;9.20;71.21;93861.66;5111308;28;20192;-76
2021/12/12 06:53:24;;;;;;;2.87;2.00;;;;;;;9.13;71.18;93855.53;5111225;28;20189;-75
2021/12/12 06:55:52;;;;;;;1.70;1.60;;;;;;;9.16;71.07;93879.00;5111766;28;20185;-75
2021/12/12 06:58:20;;;;;;;2.00;1.90;;;;;;;9.15;70.97;93879.91;5111679;28;20216;-76
2021/12/12 07:00:50;;;;;;;1.80;1.70;;;;;;;8.93;71.25;93850.59;5111329;28;20189;-76
2021/12/12 07:03:19;;;;;;;1.83;1.70;;;;;;;9.13;71.20;93892.03;5111520;28;20249;-76
2021/12/12 07:05:48;;;;;;;5.83;1.97;;;;;;;9.51;100.00;93892.59;5110771;28;20197;-77
2021/12/12 07:08:17;;;;;;;23.07;2.57;;;;;;;10.37;100.00;93899.38;5111393;28;20193;-75
2021/12/12 07:10:44;;;;;;;2.40;1.70;;;;;;;10.76;100.00;93897.06;5111107;28;20219;-75
2021/12/12 07:13:11;;;;;;;1.70;1.40;;;;;;;10.79;100.00;93901.84;5111430;28;20215;-76
2021/12/12 07:15:43;;;;;;;3.63;1.80;;;;;;;10.75;100.00;93903.94;5111285;28;20184;-74
2021/12/12 07:18:13;;;;;;;2.90;1.57;;;;;;;10.66;96.22;93909.97;5111399;28;20216;-76
2021/12/12 07:20:42;;;;;;;2.93;1.60;;;;;;;10.15;87.88;93857.28;5111422;28;20177;-72
2021/12/12 07:23:12;;;;;;;2.20;1.80;;;;;;;10.44;81.75;93923.34;5112819;28;20187;-75
2021/12/12 07:25:41;;;;;;;1.73;1.63;;;;;;;10.32;79.10;93925.41;5111826;28;20584;-73
2021/12/12 07:28:08;;;;;;;1.40;1.40;;;;;;;10.25;77.20;93939.75;5110909;28;20242;-73
2021/12/12 07:30:36;;;;;;;1.63;1.53;;;;;;;10.13;76.58;93951.97;5110758;28;20189;-73
2021/12/12 07:33:04;;;;;;;3.07;1.60;;;;;;;9.99;75.52;93952.53;5111074;28;20242;-75
2021/12/12 07:35:33;;;;;;;1.73;1.63;;;;;;;9.98;75.41;93961.16;5101281;28;20197;-73
2021/12/12 07:38:01;;;;;;;1.83;1.73;;;;;;;9.83;75.07;93950.69;5089601;28;20190;-73
2021/12/12 07:40:30;;;;;;;5.47;1.90;;;;;;;9.79;75.08;93964.72;5090168;28;20197;-72
2021/12/12 07:42:57;;;;;;;1.90;1.70;;;;;;;9.70;74.39;93961.31;5090238;28;20189;-73
2021/12/12 07:45:24;;;;;;;2.10;1.90;;;;;;;9.64;74.63;93971.34;5090111;28;20193;-76
2021/12/12 07:47:52;;;;;;;2.53;2.00;;;;;;;9.57;74.68;93986.44;5090264;28;20661;-76
2021/12/12 07:50:21;;;;;;;1.70;1.60;;;;;;;9.51;74.30;93994.69;5090255;28;20910;-75
2021/12/12 07:52:49;;;;;;;2.70;1.73;;;;;;;9.42;74.37;93993.03;5089876;28;20200;-74
2021/12/12 07:55:16;;;;;;;2.20;2.00;;;;;;;9.39;74.41;93993.31;5089994;28;20255;-74
2021/12/12 07:57:44;;;;;;;1.70;1.60;;;;;;;9.37;74.60;94005.41;5089808;28;20194;-77
2021/12/12 08:00:16;;;;;;;1.73;1.63;;;;;;;9.29;74.58;94001.84;5088802;28;20248;-75
2021/12/12 08:02:44;;;;;;;1.80;1.70;;;;;;;9.29;74.54;94019.72;5089849;28;20193;-75
2021/12/12 08:05:15;;;;;;;2.20;2.00;;;;;;;9.27;74.56;94031.00;5090137;28;20196;-75
2021/12/12 08:07:42;;;;;;;2.27;2.00;;;;;;;9.25;74.65;94028.59;5089644;28;20192;-77
2021/12/12 08:10:13;;;;;;;1.83;1.73;;;;;;;9.22;74.82;94028.91;5090509;28;20178;-76
2021/12/12 08:12:41;;;;;;;2.00;1.90;;;;;;;9.21;74.62;94029.03;5089812;28;20185;-77
2021/12/12 08:15:13;;;;;;;1.77;1.67;;;;;;;9.23;74.50;94039.91;5089963;28;20202;-73
2021/12/12 08:17:42;;;;;;;1.90;1.80;;;;;;;9.21;74.37;94031.59;5090045;28;20186;-76
2021/12/12 08:20:13;;;;;;;2.00;1.90;;;;;;;9.17;73.93;94038.72;5089670;28;20665;-75
2021/12/12 08:22:41;;;;;;;2.00;1.90;;;;;;;9.11;73.79;94026.56;5089719;28;20197;-74
2021/12/12 08:25:11;;;;;;;2.70;2.50;;;;;;;9.17;73.58;94043.84;5088750;28;20200;-74
2021/12/12 08:27:38;;;;;;;2.40;2.20;;;;;;;8.95;73.18;94013.66;5089170;28;20182;-75
2021/12/12 08:30:07;;;;;;;2.77;2.37;;;;;;;9.16;73.21;94044.00;5089824;28;20208;-75
2021/12/12 08:32:35;;;;;;;2.27;2.10;;;;;;;9.14;72.79;94045.88;5089649;28;20570;-74
2021/12/12 08:35:04;;;;;;;2.60;2.30;;;;;;;9.14;72.97;94051.78;5090061;28;20178;-73
2021/12/12 08:37:31;;;;;;;2.47;2.27;;;;;;;9.00;72.69;94032.66;5089310;28;20676;-74
2021/12/12 08:39:58;;;;;;;2.00;1.90;;;;;;;9.14;72.69;94056.88;5089420;28;20221;-75
2021/12/12 08:42:27;;;;;;;3.20;2.50;;;;;;;9.14;72.55;94056.88;5089054;28;20185;-74
2021/12/12 08:44:55;;;;;;;2.80;2.60;;;;;;;9.14;72.49;94061.97;5089378;28;20232;-73
2021/12/12 08:47:22;;;;;;;2.80;2.60;;;;;;;9.13;72.20;94069.78;5089614;28;20186;-74
2021/12/12 08:49:51;;;;;;;2.60;2.40;;;;;;;9.12;72.34;94063.88;5090344;28;20540;-74
2021/12/12 08:52:22;;;;;;;2.63;2.43;;;;;;;9.10;72.25;94070.84;5092824;28;20223;-73
2021/12/12 08:54:51;;;;;;;2.37;2.17;;;;;;;8.93;71.89;94054.59;5093301;28;20626;-75
2021/12/12 08:57:32;;;;;;;2.50;2.30;;;;;;;9.06;71.70;94072.09;5093160;28;20182;-74
2021/12/12 09:00:00;;;;;;;2.50;1.83;;;;;;;8.82;71.24;94052.25;5093344;28;20225;-71
2021/12/12 09:02:28;;;;;;;2.37;2.17;;;;;;;8.97;70.94;94081.41;5093114;28;20189;-74
2021/12/12 09:05:00;;;;;;;1.90;1.80;;;;;;;8.94;70.80;94074.06;5092936;28;20192;-73
2021/12/12 09:07:32;;;;;;;3.40;2.10;;;;;;;8.92;70.80;94095.53;5092701;28;20225;-75
2021/12/12 09:10:06;;;;;;;3.07;2.40;;;;;;;8.91;70.40;94094.72;5092811;28;20311;-72
2021/12/12 09:12:37;;;;;;;3.77;1.83;;;;;;;8.89;70.20;94101.72;5092726;28;20214;-77
2021/12/12 09:15:11;;;;;;;2.27;2.10;;;;;;;8.88;70.34;94099.31;5091941;28;20193;-74
2021/12/12 09:17:42;;;;;;;2.20;2.10;;;;;;;8.85;70.53;94090.22;5091849;28;20650;-74
2021/12/12 09:20:19;;;;;;;1.97;1.87;;;;;;;8.88;70.56;94104.41;5092611;28;20229;-74
2021/12/12 09:22:56;;;;;;;2.23;2.03;;;;;;;8.70;70.20;94074.56;5092692;28;20250;-75
2021/12/12 09:25:31;;;;;;;2.40;2.23;;;;;;;8.88;70.29;94112.06;5093150;28;20193;-76
2021/12/12 09:28:04;;;;;;;2.10;2.00;;;;;;;8.89;70.55;94121.31;5092750;28;20272;-78
2021/12/12 09:30:31;;;;;;;1.97;1.87;;;;;;;8.88;70.41;94112.06;5092440;28;20197;-76
2021/12/12 09:33:05;;;;;;;2.40;2.20;;;;;;;8.86;70.31;94107.13;5092091;28;20190;-73
2021/12/12 09:35:38;;;;;;;2.00;1.90;;;;;;;8.78;70.35;94099.38;5092878;28;20273;-79
2021/12/12 09:38:12;;;;;;;2.10;2.00;;;;;;;8.89;70.03;94111.91;5092268;28;20190;-74
2021/12/12 09:40:55;;;;;;;1.80;1.70;;;;;;;8.91;69.80;94119.44;5090624;28;20594;-74
2021/12/12 09:43:41;;;;;;;2.23;2.03;;;;;;;8.92;69.82;94121.03;5092225;28;20233;-74
2021/12/12 09:46:27;;;;;;;2.47;2.20;;;;;;;8.85;69.49;94110.63;5091939;28;20676;-75
2021/12/12 09:52:33;;;;;;;2.33;2.13;;;;;;;8.88;69.49;94133.25;5092249;28;20257;-74
2021/12/12 09:55:08;;;;;;;5.20;3.40;;;;;;;8.89;69.07;94136.59;5089440;28;20190;-75
2021/12/12 09:57:40;;;;;;;4.13;3.30;;;;;;;8.86;69.17;94144.56;5091861;28;20193;-74
2021/12/12 10:00:14;;;;;;;3.30;2.83;;;;;;;8.66;68.99;94105.59;5091979;28;20217;-73
2021/12/12 10:03:00;;;;;;;3.20;2.90;;;;;;;8.89;68.72;94134.84;5091074;28;20251;-74
2021/12/12 10:05:42;;;;;;;3.70;3.10;;;;;;;8.92;68.59;94144.78;5090579;28;20213;-73
2021/12/12 10:08:22;;;;;;;4.27;3.40;;;;;;;8.79;68.50;94141.75;5091283;28;20683;-74
2021/12/12 10:10:58;;;;;;;3.53;2.60;;;;;;;8.88;68.53;94147.75;5091827;28;20185;-76
2021/12/12 10:13:31;;;;;;;4.10;2.70;;;;;;;8.80;68.56;94130.59;5092059;28;20239;-74
2021/12/12 10:16:02;;;;;;;3.40;2.93;;;;;;;8.96;68.17;94147.84;5091444;28;20625;-76
2021/12/12 10:18:38;;;;;;;4.47;2.90;;;;;;;9.01;68.19;94154.13;5091423;28;20208;-75
2021/12/12 10:21:11;;;;;;;4.10;2.93;;;;;;;8.86;68.19;94130.06;5091286;28;20565;-73
2021/12/12 10:23:52;;;;;;;2.20;2.00;;;;;;;9.09;100.00;94112.63;5091297;28;20201;-75
2021/12/12 10:26:24;;;;;;;3.37;2.30;;;;;;;10.32;100.00;94157.13;5091065;28;20225;-76
2021/12/12 10:28:54;;;;;;;4.10;2.83;;;;;;;11.08;100.00;94153.88;5091509;28;20193;-77
2021/12/12 10:31:25;;;;;;;3.40;2.63;;;;;;;11.43;100.00;94165.69;5091360;28;20196;-74
2021/12/12 10:33:58;;;;;;;2.70;2.50;;;;;;;11.45;100.00;94162.03;5091215;28;20201;-74
2021/12/12 10:36:30;;;;;;;7.17;3.20;;;;;;;11.47;98.24;94161.84;5091042;28;20197;-74
2021/12/12 10:39:05;;;;;;;3.73;2.87;;;;;;;11.39;92.09;94161.81;5091210;28;20186;-73
2021/12/12 10:41:36;;;;;;;3.30;2.77;;;;;;;11.28;86.57;94170.59;5090805;28;20189;-74
2021/12/12 10:44:08;;;;;;;5.37;3.03;;;;;;;11.17;81.75;94186.22;5090946;28;20225;-72
2021/12/12 10:46:43;;;;;;;3.50;3.20;;;;;;;11.06;78.72;94184.75;5091062;28;20193;-73
2021/12/12 10:49:17;;;;;;;3.50;3.17;;;;;;;10.84;76.76;94175.03;5091002;28;20192;-73
2021/12/12 10:51:49;;;;;;;4.07;3.27;;;;;;;10.85;75.06;94194.56;5090684;28;20190;-74
2021/12/12 10:54:23;;;;;;;3.30;3.00;;;;;;;10.66;73.87;94183.56;5091046;28;20194;-77
2021/12/12 10:57:00;;;;;;;2.97;2.73;;;;;;;10.66;72.70;94183.56;5090446;28;20189;-77
2021/12/12 10:59:30;;;;;;;3.60;3.30;;;;;;;10.16;72.30;94122.03;5090838;28;20224;-80
2021/12/12 11:02:03;;;;;;;3.33;3.03;;;;;;;10.54;71.90;94192.47;5090342;28;20189;-79
2021/12/12 11:04:39;;;;;;;3.50;2.50;;;;;;;10.46;71.48;94190.63;5090839;28;20185;-76
2021/12/12 11:07:11;;;;;;;4.03;3.17;;;;;;;10.41;71.15;94195.41;5090842;28;20193;-75
2021/12/12 11:09:44;;;;;;;3.90;3.03;;;;;;;9.99;71.00;94144.91;5089966;28;20201;-76
2021/12/12 11:12:17;;;;;;;4.07;2.93;;;;;;;10.30;70.52;94210.97;5090741;28;20272;-76
2021/12/12 11:14:54;;;;;;;3.63;3.30;;;;;;;10.17;70.34;94188.31;5090295;28;20178;-77
2021/12/12 11:17:27;;;;;;;3.17;2.80;;;;;;;10.22;69.98;94210.84;5090866;28;20177;-77
2021/12/12 11:19:59;;;;;;;3.50;3.20;;;;;;;10.17;69.72;94206.19;5095110;28;20225;-76
2021/12/12 11:22:30;;;;;;;3.27;2.97;;;;;;;10.13;69.78;94216.84;5090787;28;20236;-76
2021/12/12 11:25:05;;;;;;;4.43;3.00;;;;;;;10.05;69.21;94218.38;5089793;28;20204;-78
2021/12/12 11:27:37;;;;;;;3.70;2.77;;;;;;;9.98;68.78;94212.25;5090528;28;20185;-77
2021/12/12 11:30:12;;;;;;;3.40;3.10;;;;;;;9.90;68.46;94212.19;5090003;28;20205;-78
2021/12/12 11:32:40;;;;;;;2.87;2.67;;;;;;;9.83;68.14;94215.47;5090302;28;20208;-76
2021/12/12 11:35:11;;;;;;;2.93;2.63;;;;;;;9.59;68.24;94177.75;5090021;28;20621;-77
2021/12/12 11:37:43;;;;;;;3.57;3.27;;;;;;;9.73;68.25;94212.97;5089809;28;20200;-77
2021/12/12 11:40:19;;;;;;;2.90;2.70;;;;;;;9.21;68.54;94134.44;5090021;28;20576;-77
2021/12/12 11:42:52;;;;;;;3.10;2.80;;;;;;;9.56;67.83;94189.03;5089964;28;20556;-77
2021/12/12 11:45:25;;;;;;;3.00;2.70;;;;;;;9.69;67.99;94215.00;5089741;28;20676;-76
2021/12/12 11:48:03;;;;;;;4.53;3.33;;;;;;;9.38;67.96;94149.94;5089914;28;20250;-77
2021/12/12 11:50:38;;;;;;;3.80;3.17;;;;;;;9.70;67.81;94219.16;5090018;28;20188;-76
2021/12/12 11:53:12;;;;;;;3.60;3.30;;;;;;;9.70;67.88;94210.69;5089754;28;20694;-78
2021/12/12 11:55:45;;;;;;;3.93;3.10;;;;;;;9.70;67.86;94208.94;5090024;28;20194;-80
2021/12/12 11:58:21;;;;;;;4.20;3.50;;;;;;;9.72;67.81;94219.84;5089844;28;20228;-77
2021/12/12 12:00:55;;;;;;;4.70;4.23;;;;;;;9.42;67.85;94174.22;5089701;28;20254;-76
2021/12/12 12:03:28;;;;;;;5.93;4.17;;;;;;;9.72;67.87;94230.06;5089610;28;20533;-79
2021/12/12 12:06:17;;;;;;;5.37;4.50;;;;;;;9.25;68.00;94161.28;5089866;28;20215;-78
2021/12/12 12:08:59;;;;;;;4.70;3.73;;;;;;;9.66;67.83;94230.59;5089712;28;20185;-78
2021/12/12 12:11:47;;;;;;;4.23;3.63;;;;;;;9.35;68.06;94185.94;5090121;28;20189;-76